Time;durP1;ratioP1;P1;durP2;ratioP2;P2;SDS_P1;SDS_P2;PMS_P1;PMS_P2;Temp;Humidity;BMP_temperature;BMP_pressure;BME280_temperature;BME280_humidity;BME280_pressure;Samples;Min_cycle;Max_cycle;Signal;HPM_P1;HPM_P2
2023/07/13 00:02:26;;;;;;;9.40;2.28;;;;;;;14.96;78.74;101340.28;4971371;29;20016;-81
2023/07/13 00:04:52;;;;;;;6.43;1.98;;;;;;;14.97;78.98;101334.03;4939151;29;20032;-75
2023/07/13 00:07:19;;;;;;;7.05;2.47;;;;;;;14.93;79.13;101343.19;4957473;29;20034;-79
2023/07/13 00:09:46;;;;;;;7.22;2.60;;;;;;;14.89;79.63;101341.78;4965992;28;20027;-74
2023/07/13 00:12:28;;;;;;;10.75;2.30;;;;;;;14.94;79.36;101334.28;4952839;29;20136;-73
2023/07/13 00:15:00;;;;;;;7.75;2.08;;;;;;;14.91;79.62;101334.53;4958369;29;20110;-82
2023/07/13 00:17:27;;;;;;;7.07;2.33;;;;;;;14.93;79.61;101329.94;4932481;29;20028;-81
2023/07/13 00:19:52;;;;;;;6.30;2.20;;;;;;;14.89;79.75;101325.88;4960705;29;20031;-80
2023/07/13 00:22:18;;;;;;;5.93;1.90;;;;;;;14.87;80.21;101332.28;4970599;29;20068;-81
2023/07/13 00:24:44;;;;;;;7.13;1.90;;;;;;;14.86;80.41;101330.59;4969949;29;20176;-82
2023/07/13 00:27:10;;;;;;;8.25;2.25;;;;;;;14.83;80.72;101329.06;4948718;29;20023;-73
2023/07/13 00:29:37;;;;;;;7.53;2.63;;;;;;;14.84;80.87;101333.38;4945933;29;20042;-81
2023/07/13 00:32:04;;;;;;;7.63;2.45;;;;;;;14.82;81.11;101331.84;4948802;29;20056;-81
2023/07/13 00:34:34;;;;;;;9.00;2.50;;;;;;;14.78;81.51;101339.16;4947232;29;20412;-74
2023/07/13 00:37:00;;;;;;;8.27;2.28;;;;;;;14.75;81.86;101339.44;4943047;29;20036;-81
2023/07/13 00:39:25;;;;;;;10.32;2.22;;;;;;;14.77;81.88;101337.50;4944148;29;20070;-80
2023/07/13 00:41:51;;;;;;;6.82;2.30;;;;;;;14.74;82.27;101340.41;4948572;29;20027;-80
2023/07/13 00:44:19;;;;;;;6.18;2.30;;;;;;;14.70;82.46;101346.94;4938059;29;20032;-73
2023/07/13 00:46:49;;;;;;;10.73;2.60;;;;;;;14.70;82.81;101344.28;4934621;29;20070;-82
2023/07/13 00:49:21;;;;;;;7.70;2.50;;;;;;;14.69;82.82;101345.25;4926155;29;20038;-73
2023/07/13 00:51:51;;;;;;;5.60;1.92;;;;;;;14.68;82.91;101339.09;4932059;29;20091;-81
2023/07/13 00:54:32;;;;;;;10.00;2.45;;;;;;;14.65;82.96;101343.81;4933272;29;20038;-74
2023/07/13 00:57:03;;;;;;;5.55;2.20;;;;;;;14.69;83.17;101337.31;4942814;29;20532;-74
2023/07/13 00:59:30;;;;;;;13.30;3.75;;;;;;;14.66;83.43;101340.22;4934096;29;20032;-82
2023/07/13 01:01:57;;;;;;;12.02;2.42;;;;;;;14.64;83.78;101339.50;4932933;29;20034;-84
2023/07/13 01:04:26;;;;;;;7.15;2.50;;;;;;;14.62;84.01;101342.28;4931142;29;20027;-83
2023/07/13 01:06:52;;;;;;;7.50;2.08;;;;;;;14.65;84.08;101344.66;4933080;29;20032;-73
2023/07/13 01:09:20;;;;;;;8.00;2.38;;;;;;;14.63;84.18;101340.47;4931384;29;20042;-81
2023/07/13 01:11:45;;;;;;;9.68;2.45;;;;;;;14.60;84.70;101332.78;4949357;29;20059;-81
2023/07/13 01:14:11;;;;;;;8.93;2.42;;;;;;;14.62;84.54;101330.84;4951498;29;20035;-74
2023/07/13 01:16:38;;;;;;;8.60;2.28;;;;;;;14.62;84.67;101338.78;4951565;29;20035;-74
2023/07/13 01:19:23;;;;;;;6.57;2.78;;;;;;;14.60;85.19;101343.38;4935056;29;20398;-81
2023/07/13 01:21:52;;;;;;;9.57;2.55;;;;;;;14.56;85.52;101350.72;4949648;29;20019;-73
2023/07/13 01:24:17;;;;;;;7.88;3.03;;;;;;;14.55;85.77;101342.91;4948670;29;20039;-73
2023/07/13 01:26:43;;;;;;;6.60;2.20;;;;;;;14.56;85.75;101352.53;4952085;29;20030;-82
2023/07/13 01:29:08;;;;;;;7.55;2.25;;;;;;;14.55;86.05;101353.50;4950599;29;20110;-76
2023/07/13 01:31:34;;;;;;;10.55;3.05;;;;;;;14.56;86.16;101349.88;4950752;29;20031;-81
2023/07/13 01:34:00;;;;;;;7.72;2.53;;;;;;;14.52;86.59;101356.41;4950802;29;20396;-81
2023/07/13 01:36:25;;;;;;;11.27;2.78;;;;;;;14.54;86.62;101355.31;4950753;29;20031;-81
2023/07/13 01:38:51;;;;;;;9.95;2.40;;;;;;;14.51;86.95;101357.38;4947843;29;20508;-73
2023/07/13 01:41:18;;;;;;;9.02;2.53;;;;;;;14.46;87.19;101355.09;4931034;29;20407;-81
2023/07/13 01:43:43;;;;;;;6.53;2.33;;;;;;;14.51;87.38;101362.66;4952233;29;20035;-81
2023/07/13 01:46:09;;;;;;;9.02;2.75;;;;;;;14.48;87.54;101362.94;4953260;29;20027;-80
2023/07/13 01:48:35;;;;;;;9.23;3.03;;;;;;;14.44;88.09;101366.78;4953456;29;20031;-81
2023/07/13 01:51:01;;;;;;;9.25;3.13;;;;;;;14.35;88.41;101357.75;4951712;29;20467;-81
2023/07/13 01:53:26;;;;;;;7.53;2.83;;;;;;;14.34;88.52;101364.00;4953191;29;20454;-81
2023/07/13 01:55:53;;;;;;;9.57;2.90;;;;;;;14.35;88.68;101363.88;4949296;28;20023;-81
2023/07/13 01:58:18;;;;;;;7.53;2.40;;;;;;;14.36;88.59;101365.56;4934783;29;20037;-81
2023/07/13 02:00:47;;;;;;;7.88;2.80;;;;;;;14.30;89.15;101366.06;4952828;29;20027;-73
2023/07/13 02:03:17;;;;;;;8.77;2.65;;;;;;;14.24;89.40;101358.63;4952937;29;20086;-82
2023/07/13 02:05:43;;;;;;;6.10;2.50;;;;;;;14.23;89.74;101367.53;4952200;29;20019;-81
2023/07/13 02:08:09;;;;;;;8.75;2.70;;;;;;;14.20;89.87;101370.41;4952256;29;20464;-81
2023/07/13 02:10:34;;;;;;;7.85;2.72;;;;;;;14.19;90.14;101370.53;4950350;29;20138;-73
2023/07/13 02:13:00;;;;;;;5.47;2.40;;;;;;;14.22;89.95;101376.44;4950475;29;20027;-81
2023/07/13 02:15:26;;;;;;;10.38;3.05;;;;;;;14.17;90.51;101375.97;4943168;29;20028;-81
2023/07/13 02:17:51;;;;;;;10.48;3.40;;;;;;;14.18;90.83;101374.16;4946555;29;20400;-80
2023/07/13 02:20:17;;;;;;;9.38;2.72;;;;;;;14.18;90.54;101374.16;4951405;29;20023;-73
2023/07/13 02:22:43;;;;;;;11.05;3.38;;;;;;;14.17;90.91;101372.47;4951142;29;20019;-81
2023/07/13 02:25:08;;;;;;;8.15;2.63;;;;;;;14.18;90.94;101371.50;4950160;29;20034;-73
2023/07/13 02:27:34;;;;;;;13.88;3.03;;;;;;;14.15;91.08;101372.59;4950765;29;20027;-73
2023/07/13 02:29:59;;;;;;;8.13;2.60;;;;;;;14.15;91.53;101371.75;4949084;29;20316;-73
2023/07/13 02:32:25;;;;;;;8.15;2.67;;;;;;;14.16;91.74;101371.63;4947153;29;20031;-81
2023/07/13 02:34:52;;;;;;;8.48;2.70;;;;;;;14.10;91.77;101375.63;4932725;29;20031;-81
2023/07/13 02:37:17;;;;;;;9.38;2.92;;;;;;;14.11;91.99;101376.47;4950801;29;20023;-82
2023/07/13 02:39:43;;;;;;;7.10;2.45;;;;;;;14.14;92.24;101383.31;4949157;29;20035;-81
2023/07/13 02:42:08;;;;;;;9.95;2.78;;;;;;;14.13;92.05;101369.25;4952312;29;20035;-82
2023/07/13 02:44:34;;;;;;;12.73;3.03;;;;;;;14.07;92.50;101381.16;4950980;29;20031;-81
2023/07/13 02:46:59;;;;;;;11.13;2.92;;;;;;;14.10;92.53;101377.44;4949222;29;20047;-81
2023/07/13 02:49:29;;;;;;;8.00;2.63;;;;;;;14.09;92.52;101381.03;4952478;29;20547;-82
2023/07/13 02:51:54;;;;;;;9.40;3.13;;;;;;;14.00;93.00;101379.09;4952678;29;20057;-73
2023/07/13 02:54:20;;;;;;;10.55;3.03;;;;;;;13.98;93.28;101375.75;4950371;29;20122;-82
2023/07/13 02:56:46;;;;;;;10.30;2.95;;;;;;;14.02;93.47;101379.84;4936873;29;20027;-82
2023/07/13 02:59:13;;;;;;;10.63;3.10;;;;;;;13.98;93.65;101373.09;4952122;29;20041;-73
2023/07/13 03:01:38;;;;;;;9.70;3.08;;;;;;;13.96;93.66;101369.72;4951624;29;20372;-83
2023/07/13 03:04:05;;;;;;;9.10;3.00;;;;;;;13.94;94.24;101375.16;4951613;29;20030;-82
2023/07/13 03:06:32;;;;;;;8.07;3.20;;;;;;;13.88;94.65;101374.81;4949199;29;20035;-81
2023/07/13 03:08:59;;;;;;;9.43;2.88;;;;;;;13.86;95.29;101376.72;4952163;29;20039;-81
2023/07/13 03:11:26;;;;;;;10.77;3.08;;;;;;;13.86;95.23;101377.56;4952391;29;20088;-73
2023/07/13 03:13:51;;;;;;;9.95;3.20;;;;;;;13.85;95.50;101369.75;4950665;29;20443;-81
2023/07/13 03:16:17;;;;;;;9.77;3.10;;;;;;;13.85;95.72;101372.41;4950243;28;20038;-82
2023/07/13 03:18:43;;;;;;;9.85;3.22;;;;;;;13.90;95.76;101380.81;4953704;29;20035;-74
2023/07/13 03:21:10;;;;;;;10.60;2.95;;;;;;;13.79;96.61;101382.50;4951642;29;20027;-82
2023/07/13 03:23:36;;;;;;;12.95;3.53;;;;;;;13.84;96.57;101378.66;4953311;29;20038;-82
2023/07/13 03:26:17;;;;;;;11.02;3.58;;;;;;;13.78;97.15;101377.34;4936516;29;20035;-73
2023/07/13 03:28:43;;;;;;;13.15;4.03;;;;;;;13.75;97.34;101374.94;4950698;29;20035;-74
2023/07/13 03:31:11;;;;;;;12.60;3.65;;;;;;;13.70;97.76;101387.69;4951356;29;20031;-73
2023/07/13 03:33:37;;;;;;;10.07;3.00;;;;;;;13.76;97.18;101387.19;4951992;29;20051;-82
2023/07/13 03:36:05;;;;;;;10.30;3.15;;;;;;;13.74;98.01;101392.59;4950817;29;20432;-82
2023/07/13 03:38:31;;;;;;;10.80;3.20;;;;;;;13.75;97.49;101390.81;4951495;29;20087;-81
2023/07/13 03:40:56;;;;;;;11.57;4.03;;;;;;;13.73;98.23;101392.72;4951620;29;20105;-81
2023/07/13 03:43:22;;;;;;;12.32;3.65;;;;;;;13.72;98.67;101396.34;4950523;29;20029;-81
2023/07/13 03:45:47;;;;;;;15.57;3.40;;;;;;;13.73;98.95;101388.28;4951113;29;20038;-83
2023/07/13 03:48:13;;;;;;;16.02;3.78;;;;;;;13.73;98.84;101393.56;4953481;29;20479;-83
2023/07/13 03:50:43;;;;;;;9.27;3.35;;;;;;;13.75;98.82;101396.09;4953532;29;20023;-81
2023/07/13 03:53:09;;;;;;;11.90;3.35;;;;;;;13.77;98.61;101397.66;4953778;29;20045;-74
2023/07/13 03:55:34;;;;;;;13.32;3.85;;;;;;;13.74;99.23;101395.25;4951401;29;20477;-74
2023/07/13 03:58:28;;;;;;;12.02;3.92;;;;;;;13.81;98.79;101400.91;4934039;29;20019;-73
2023/07/13 04:00:55;;;;;;;13.02;3.63;;;;;;;13.80;99.08;101402.69;4934853;29;20119;-82
2023/07/13 04:03:21;;;;;;;12.80;4.20;;;;;;;13.83;99.01;101408.72;4934419;29;20035;-82
2023/07/13 04:05:47;;;;;;;11.18;3.70;;;;;;;13.84;98.64;101413.03;4933276;29;20023;-82
2023/07/13 04:08:13;;;;;;;12.40;3.80;;;;;;;13.85;98.96;101412.06;4934721;29;20034;-83
2023/07/13 04:10:39;;;;;;;11.55;4.20;;;;;;;13.84;99.04;101416.53;4949158;29;20811;-75
2023/07/13 04:13:05;;;;;;;12.98;3.78;;;;;;;13.88;98.77;101417.97;4951199;29;20027;-84
2023/07/13 04:15:32;;;;;;;13.23;4.10;;;;;;;13.82;99.56;101422.91;4953324;29;20035;-81
2023/07/13 04:17:57;;;;;;;11.60;3.83;;;;;;;13.90;99.39;101431.91;4935070;29;20031;-82
2023/07/13 04:20:25;;;;;;;15.75;4.38;;;;;;;13.93;99.57;101430.81;4952766;29;20046;-81
2023/07/13 04:22:51;;;;;;;14.73;4.88;;;;;;;13.95;100.00;101429.75;4936453;29;20030;-81
2023/07/13 04:25:17;;;;;;;12.75;4.72;;;;;;;13.99;100.00;101430.34;4935326;29;20038;-82
2023/07/13 04:27:42;;;;;;;18.63;5.20;;;;;;;14.04;100.00;101428.19;4952396;28;20063;-74
2023/07/13 04:30:08;;;;;;;14.43;5.03;;;;;;;14.10;100.00;101433.00;4948943;29;20046;-73
2023/07/13 04:32:33;;;;;;;18.13;6.47;;;;;;;14.10;100.00;101425.06;4951549;29;20378;-73
2023/07/13 04:34:59;;;;;;;13.52;6.22;;;;;;;14.18;100.00;101425.28;4951324;29;20031;-73
2023/07/13 04:37:29;;;;;;;21.48;7.03;;;;;;;14.21;100.00;101430.34;4951178;29;20134;-81
2023/07/13 04:39:54;;;;;;;20.85;7.22;;;;;;;14.25;100.00;101429.13;4934507;29;20045;-81
2023/07/13 04:42:22;;;;;;;21.35;7.57;;;;;;;14.33;100.00;101439.94;4951660;29;20019;-74
2023/07/13 04:44:51;;;;;;;19.75;8.00;;;;;;;14.37;100.00;101441.38;4952415;29;20035;-74
2023/07/13 04:47:18;;;;;;;24.63;8.35;;;;;;;14.45;100.00;101447.91;4949316;29;20023;-73
2023/07/13 04:49:44;;;;;;;17.25;8.70;;;;;;;14.51;100.00;101452.69;4952369;29;20035;-80
2023/07/13 04:52:10;;;;;;;25.17;9.73;;;;;;;14.58;100.00;101453.88;4952214;29;20030;-81
2023/07/13 04:54:37;;;;;;;23.95;10.02;;;;;;;14.64;100.00;101446.28;4952187;29;20027;-81
2023/07/13 04:57:03;;;;;;;27.20;10.18;;;;;;;14.70;100.00;101443.13;4952301;29;20384;-80
2023/07/13 04:59:28;;;;;;;26.40;11.00;;;;;;;14.76;100.00;101449.72;4952591;29;20360;-74
2023/07/13 05:01:53;;;;;;;26.00;11.73;;;;;;;14.83;100.00;101442.13;4935240;29;20289;-82
2023/07/13 05:04:19;;;;;;;24.48;10.73;;;;;;;14.92;100.00;101442.22;4940016;29;20047;-74
2023/07/13 05:06:44;;;;;;;28.00;11.85;;;;;;;14.98;100.00;101452.31;4951893;29;20031;-80
2023/07/13 05:09:14;;;;;;;29.08;11.38;;;;;;;15.04;100.00;101449.13;4954446;29;20049;-81
2023/07/13 05:11:40;;;;;;;26.98;11.65;;;;;;;15.11;100.00;101448.63;4953900;29;20181;-80
2023/07/13 05:14:05;;;;;;;31.90;12.25;;;;;;;15.18;100.00;101452.44;4935529;29;20070;-81
2023/07/13 05:16:32;;;;;;;27.25;11.95;;;;;;;15.19;100.00;101454.13;4953621;29;20035;-74
2023/07/13 05:19:02;;;;;;;32.47;12.57;;;;;;;15.25;100.00;101454.47;4953332;29;20099;-81
2023/07/13 05:21:31;;;;;;;26.85;11.82;;;;;;;15.29;100.00;101465.66;4939296;29;20086;-80
2023/07/13 05:23:58;;;;;;;28.92;12.30;;;;;;;15.35;100.00;101471.28;4961228;29;20110;-79
2023/07/13 05:26:24;;;;;;;25.77;11.05;;;;;;;15.40;100.00;101464.75;4960580;29;20082;-81
2023/07/13 05:28:50;;;;;;;25.70;11.40;;;;;;;15.42;100.00;101474.25;4961055;29;20095;-81
2023/07/13 05:31:16;;;;;;;25.65;12.52;;;;;;;15.47;100.00;101473.88;4956164;29;20035;-80
2023/07/13 05:33:42;;;;;;;27.38;11.88;;;;;;;15.50;100.00;101471.78;4960897;29;20118;-82
2023/07/13 05:36:08;;;;;;;24.48;10.98;;;;;;;15.50;100.00;101479.75;4958311;29;20035;-82
2023/07/13 05:38:34;;;;;;;29.17;12.40;;;;;;;15.52;100.00;101461.88;4933413;29;20023;-83
2023/07/13 05:41:00;;;;;;;23.90;12.68;;;;;;;15.54;100.00;101472.38;4953635;28;20035;-83
2023/07/13 05:43:26;;;;;;;25.15;11.88;;;;;;;15.58;100.00;101473.81;4935437;29;20557;-83
2023/07/13 05:45:54;;;;;;;23.73;11.73;;;;;;;15.64;100.00;101474.16;4954190;29;20011;-83
2023/07/13 05:48:19;;;;;;;30.23;13.82;;;;;;;15.71;99.67;101473.63;4953505;28;20007;-81
2023/07/13 05:50:45;;;;;;;24.67;12.55;;;;;;;15.81;99.58;101471.88;4944100;29;20027;-75
2023/07/13 05:53:12;;;;;;;30.58;13.57;;;;;;;15.87;99.54;101480.13;4951029;29;20023;-81
2023/07/13 05:55:44;;;;;;;30.35;12.25;;;;;;;15.97;99.33;101482.81;4957258;29;20027;-82
2023/07/13 05:58:13;;;;;;;27.80;12.63;;;;;;;16.05;98.45;101487.50;4960079;29;20031;-80
2023/07/13 06:00:40;;;;;;;28.45;13.15;;;;;;;16.04;97.98;101488.47;4961293;29;20035;-82
2023/07/13 06:03:06;;;;;;;26.33;12.23;;;;;;;16.10;97.85;101487.94;4960667;29;20025;-82
2023/07/13 06:05:36;;;;;;;31.27;13.68;;;;;;;16.17;97.49;101491.72;4961418;29;20023;-81
2023/07/13 06:08:02;;;;;;;26.05;12.48;;;;;;;16.22;97.02;101493.00;4959962;28;20106;-81
2023/07/13 06:10:28;;;;;;;27.70;12.57;;;;;;;16.39;96.29;101491.50;4939533;29;20063;-82
2023/07/13 06:12:53;;;;;;;25.20;12.77;;;;;;;16.43;95.73;101506.22;4958179;29;20033;-81
2023/07/13 06:15:19;;;;;;;25.38;11.75;;;;;;;16.48;95.33;101497.84;4957076;29;20037;-81
2023/07/13 06:17:45;;;;;;;28.98;13.10;;;;;;;16.51;94.99;101500.25;4936939;29;20031;-74
2023/07/13 06:20:10;;;;;;;26.35;12.43;;;;;;;16.50;94.67;101506.53;4946115;29;20034;-81
2023/07/13 06:22:35;;;;;;;25.33;12.02;;;;;;;16.44;94.78;101505.25;4941636;29;20099;-81
2023/07/13 06:25:01;;;;;;;27.15;12.10;;;;;;;16.49;95.16;101510.16;4957177;29;20042;-81
2023/07/13 06:27:26;;;;;;;28.30;12.40;;;;;;;16.41;94.43;101515.28;4958622;29;20421;-80
2023/07/13 06:29:53;;;;;;;23.77;11.98;;;;;;;16.45;94.72;101517.56;4955921;29;20059;-74
2023/07/13 06:32:19;;;;;;;24.45;12.30;;;;;;;16.47;94.75;101512.13;4950353;29;20038;-74
2023/07/13 06:34:45;;;;;;;24.35;12.02;;;;;;;16.49;94.31;101515.47;4951099;29;20365;-82
2023/07/13 06:37:11;;;;;;;27.90;13.27;;;;;;;16.48;94.47;101522.59;4950859;29;20034;-81
2023/07/13 06:39:37;;;;;;;30.23;12.88;;;;;;;16.46;94.48;101521.06;4950270;29;20039;-81
2023/07/13 06:42:02;;;;;;;28.85;12.68;;;;;;;16.52;94.57;101515.19;4951311;29;20034;-80
2023/07/13 06:44:29;;;;;;;26.67;12.02;;;;;;;16.61;94.15;101519.69;4951066;29;20027;-81
2023/07/13 06:46:54;;;;;;;29.02;12.63;;;;;;;16.68;94.13;101520.84;4950321;29;20163;-80
2023/07/13 06:49:20;;;;;;;27.52;12.05;;;;;;;16.72;93.71;101526.75;4951225;29;20035;-81
2023/07/13 06:51:46;;;;;;;27.58;12.05;;;;;;;16.75;93.44;101526.47;4953513;28;20034;-74
2023/07/13 06:54:13;;;;;;;26.00;11.43;;;;;;;16.86;93.00;101534.34;4953518;29;20038;-74
2023/07/13 06:56:38;;;;;;;24.95;11.25;;;;;;;16.90;92.59;101533.09;4955074;29;20495;-80
2023/07/13 06:59:03;;;;;;;21.75;11.00;;;;;;;16.88;91.98;101532.38;4938049;29;20034;-81
2023/07/13 07:01:29;;;;;;;24.17;11.32;;;;;;;16.92;92.02;101534.63;4953848;29;20072;-74
2023/07/13 07:03:55;;;;;;;24.23;11.07;;;;;;;16.99;92.10;101534.91;4954537;29;20023;-74
2023/07/13 07:06:25;;;;;;;26.75;11.27;;;;;;;17.04;92.10;101537.16;4954049;29;20483;-81
2023/07/13 07:08:52;;;;;;;18.63;9.68;;;;;;;17.11;91.94;101533.78;4955965;29;20216;-81
2023/07/13 07:11:22;;;;;;;19.88;10.05;;;;;;;17.14;91.00;101535.34;4951024;28;20089;-80
2023/07/13 07:13:48;;;;;;;26.42;10.98;;;;;;;17.09;90.68;101535.75;4935971;29;20115;-74
2023/07/13 07:16:13;;;;;;;22.67;11.07;;;;;;;17.22;90.79;101531.03;4940791;29;20468;-82
2023/07/13 07:18:39;;;;;;;24.27;10.40;;;;;;;17.25;89.69;101529.91;4955475;29;20038;-75
2023/07/13 07:21:04;;;;;;;21.02;9.85;;;;;;;17.33;90.29;101527.38;4953967;29;20476;-77
2023/07/13 07:23:30;;;;;;;22.85;9.77;;;;;;;17.43;89.88;101530.88;4954763;29;20506;-75
2023/07/13 07:25:55;;;;;;;21.98;10.15;;;;;;;17.66;88.22;101534.06;4954094;29;20027;-75
2023/07/13 07:28:21;;;;;;;21.65;9.52;;;;;;;17.87;87.91;101539.22;4953676;29;20035;-80
2023/07/13 07:30:47;;;;;;;21.08;9.10;;;;;;;18.03;85.84;101536.81;4952771;29;20570;-75
2023/07/13 07:33:14;;;;;;;21.17;8.77;;;;;;;18.19;84.72;101546.84;4953270;29;20050;-75
2023/07/13 07:35:39;;;;;;;20.48;9.13;;;;;;;18.29;84.21;101542.31;4953926;29;20099;-75
2023/07/13 07:38:05;;;;;;;18.88;8.27;;;;;;;18.37;83.67;101544.25;4954200;29;20084;-76
2023/07/13 07:40:31;;;;;;;23.05;8.35;;;;;;;18.47;83.72;101547.72;4954002;29;20027;-75
2023/07/13 07:42:57;;;;;;;17.55;7.63;;;;;;;18.52;82.49;101548.13;4953337;29;20035;-77
2023/07/13 07:45:23;;;;;;;22.80;7.95;;;;;;;18.71;82.57;101545.38;4948505;28;20392;-75
2023/07/13 07:47:48;;;;;;;17.13;7.57;;;;;;;18.76;80.97;101545.75;4954047;29;20031;-74
2023/07/13 07:50:14;;;;;;;15.48;6.65;;;;;;;19.06;79.75;101544.59;4953826;29;20059;-80
2023/07/13 07:52:39;;;;;;;14.43;6.63;;;;;;;19.24;79.22;101549.94;4954102;29;20055;-79
2023/07/13 07:55:07;;;;;;;13.73;5.82;;;;;;;19.43;77.68;101546.25;4950244;29;20408;-80
2023/07/13 07:57:34;;;;;;;20.13;7.07;;;;;;;19.32;76.97;101552.69;4951961;28;20043;-80
2023/07/13 07:59:59;;;;;;;16.75;5.75;;;;;;;19.19;76.79;101552.22;4953838;29;20079;-80
2023/07/13 08:02:25;;;;;;;13.98;5.75;;;;;;;19.11;77.47;101557.47;4949880;28;20035;-80
2023/07/13 08:04:55;;;;;;;15.15;5.78;;;;;;;19.07;77.79;101550.75;4953719;29;20511;-80
2023/07/13 08:07:21;;;;;;;18.33;6.20;;;;;;;19.03;76.83;101560.91;4954373;29;20110;-79
2023/07/13 08:09:46;;;;;;;20.95;6.50;;;;;;;19.16;77.08;101555.19;4952965;29;20106;-79
2023/07/13 08:12:12;;;;;;;10.05;5.05;;;;;;;19.44;75.63;101547.09;4952917;28;20061;-80
2023/07/13 08:14:40;;;;;;;16.23;5.40;;;;;;;19.91;75.36;101556.50;4946133;29;20039;-79
2023/07/13 08:17:05;;;;;;;15.95;5.55;;;;;;;20.37;71.66;101549.09;4934788;29;20028;-79
2023/07/13 08:19:31;;;;;;;11.07;5.00;;;;;;;20.57;71.37;101555.06;4937742;29;20399;-75
2023/07/13 08:21:56;;;;;;;15.27;4.82;;;;;;;20.67;70.31;101549.56;4952844;29;20554;-75
2023/07/13 08:24:23;;;;;;;12.27;5.03;;;;;;;20.54;68.81;101547.38;4952797;28;20031;-75
2023/07/13 08:26:50;;;;;;;11.80;4.85;;;;;;;20.40;70.84;101555.97;4955104;28;20106;-79
2023/07/13 08:29:17;;;;;;;11.48;5.18;;;;;;;20.25;69.20;101550.38;4955581;28;20030;-79
2023/07/13 08:31:43;;;;;;;12.70;5.68;;;;;;;20.16;69.90;101551.31;4949376;28;20031;-75
2023/07/13 08:34:08;;;;;;;12.15;5.07;;;;;;;20.26;70.02;101550.22;4971346;28;20031;-75
2023/07/13 08:36:34;;;;;;;14.20;4.93;;;;;;;20.44;68.39;101558.19;4945590;29;20090;-79
2023/07/13 08:39:00;;;;;;;12.13;4.85;;;;;;;20.65;67.52;101557.75;4950990;29;20034;-75
2023/07/13 08:41:26;;;;;;;14.45;4.65;;;;;;;20.96;68.02;101555.34;4964056;28;20117;-81
2023/07/13 08:43:58;;;;;;;12.05;4.30;;;;;;;21.08;66.77;101556.72;4972076;28;20023;-74
2023/07/13 08:46:33;;;;;;;12.40;5.03;;;;;;;20.95;67.19;101551.84;4957947;28;20023;-80
2023/07/13 08:49:05;;;;;;;10.95;4.53;;;;;;;20.67;66.65;101558.44;4950941;28;20025;-79
2023/07/13 08:51:45;;;;;;;13.15;5.25;;;;;;;20.37;67.79;101554.44;4972481;28;20025;-79
2023/07/13 08:54:36;;;;;;;10.93;4.57;;;;;;;20.47;67.96;101557.88;4954707;28;20035;-80
2023/07/13 08:57:13;;;;;;;8.07;4.20;;;;;;;20.83;67.54;101550.47;4938356;28;20058;-75
2023/07/13 08:59:39;;;;;;;9.00;4.60;;;;;;;21.03;65.42;101545.66;4960110;28;20031;-79
2023/07/13 09:02:34;;;;;;;11.07;4.60;;;;;;;21.22;66.34;101550.72;4969441;28;20075;-79
2023/07/13 09:05:04;;;;;;;13.07;4.72;;;;;;;21.32;64.76;101533.69;4949906;28;20034;-79
2023/07/13 09:08:06;;;;;;;9.20;4.25;;;;;;;21.35;66.42;101544.06;4957689;28;20404;-80
2023/07/13 09:10:43;;;;;;;10.48;4.80;;;;;;;21.29;66.05;101553.59;4971754;28;20480;-80
2023/07/13 09:13:39;;;;;;;10.13;4.65;;;;;;;21.02;64.35;101548.50;4971524;28;20034;-82
2023/07/13 09:16:05;;;;;;;10.90;4.75;;;;;;;20.80;64.53;101547.28;4970998;28;20037;-80
2023/07/13 09:19:06;;;;;;;12.30;5.13;;;;;;;20.70;66.60;101554.59;4963238;28;20034;-80
2023/07/13 09:21:37;;;;;;;13.82;5.07;;;;;;;20.60;66.01;101552.06;4940014;28;20086;-80
2023/07/13 09:24:37;;;;;;;10.03;4.13;;;;;;;20.79;65.92;101556.28;4962934;28;20114;-79
2023/07/13 09:27:11;;;;;;;8.75;4.15;;;;;;;20.76;63.58;101543.25;4958254;28;20037;-79
2023/07/13 09:29:43;;;;;;;9.63;4.28;;;;;;;20.72;64.44;101552.59;4958588;28;20055;-76
2023/07/13 09:32:13;;;;;;;12.63;4.43;;;;;;;20.89;64.48;101551.66;4954428;28;20109;-81
2023/07/13 09:34:38;;;;;;;10.55;4.18;;;;;;;21.15;64.22;101538.97;4959578;28;20031;-79
2023/07/13 09:37:06;;;;;;;10.63;4.00;;;;;;;20.98;62.51;101542.66;4963948;28;20022;-80
2023/07/13 09:39:39;;;;;;;12.38;4.78;;;;;;;20.96;62.18;101542.81;4938931;28;20046;-80
2023/07/13 09:42:16;;;;;;;9.48;3.95;;;;;;;20.95;62.60;101549.16;4969251;28;20034;-80
2023/07/13 09:45:06;;;;;;;11.07;4.13;;;;;;;20.88;62.28;101541.97;4952948;28;20035;-80
2023/07/13 09:47:37;;;;;;;11.05;4.10;;;;;;;21.07;62.71;101538.13;4959749;28;20018;-75
2023/07/13 09:50:10;;;;;;;11.18;3.95;;;;;;;21.13;63.80;101551.69;4955064;28;20031;-80
2023/07/13 09:52:46;;;;;;;6.57;3.53;;;;;;;21.10;62.38;101549.34;4955983;28;20057;-80
2023/07/13 09:55:36;;;;;;;10.65;3.50;;;;;;;21.11;62.75;101548.34;4956801;28;20034;-75
2023/07/13 09:58:22;;;;;;;7.50;3.35;;;;;;;21.24;61.98;101550.59;4942176;28;20039;-75
2023/07/13 10:00:59;;;;;;;10.05;3.20;;;;;;;21.21;60.88;101556.22;4935774;29;20027;-75
2023/07/13 10:03:28;;;;;;;8.48;2.90;;;;;;;21.46;61.17;101552.59;4962121;28;20038;-75
2023/07/13 10:05:54;;;;;;;8.32;3.08;;;;;;;21.46;59.95;101551.75;4969242;28;20026;-74
2023/07/13 10:08:30;;;;;;;9.00;2.90;;;;;;;21.26;59.31;101557.44;4970798;28;20034;-75
2023/07/13 10:11:00;;;;;;;8.55;3.00;;;;;;;21.25;59.99;101550.44;4960792;28;20057;-79
2023/07/13 10:13:28;;;;;;;8.98;3.00;;;;;;;21.55;59.64;101540.88;4950040;28;20114;-80
2023/07/13 10:15:56;;;;;;;9.98;2.90;;;;;;;21.86;57.75;101549.06;4965077;28;20023;-80
2023/07/13 10:18:24;;;;;;;6.03;2.33;;;;;;;21.95;56.75;101551.72;4954743;28;20027;-79
2023/07/13 10:21:13;;;;;;;6.50;2.17;;;;;;;22.00;56.34;101558.22;4945092;29;20621;-80
2023/07/13 10:23:39;;;;;;;7.63;2.55;;;;;;;22.17;55.12;101545.69;4928244;28;20066;-80
2023/07/13 10:26:11;;;;;;;8.55;2.70;;;;;;;22.32;55.00;101560.03;4968390;28;20058;-79
2023/07/13 10:28:38;;;;;;;7.53;2.75;;;;;;;22.40;55.29;101548.44;4969045;28;20035;-80
2023/07/13 10:31:11;;;;;;;8.48;2.83;;;;;;;22.50;56.38;101546.41;4951033;28;20028;-80
2023/07/13 10:33:39;;;;;;;8.07;2.65;;;;;;;22.60;55.31;101551.56;4973490;28;20050;-80
2023/07/13 10:36:33;;;;;;;11.68;2.80;;;;;;;22.36;57.20;101561.34;4971738;28;20486;-80
2023/07/13 10:39:03;;;;;;;6.18;2.80;;;;;;;21.90;58.23;101565.63;4973880;28;20034;-79
2023/07/13 10:41:33;;;;;;;7.60;2.70;;;;;;;21.63;58.98;101566.00;4974952;28;20019;-77
2023/07/13 10:44:00;;;;;;;7.00;3.13;;;;;;;21.32;60.04;101576.53;4970943;28;20031;-78
2023/07/13 10:46:28;;;;;;;11.40;3.80;;;;;;;20.97;63.81;101594.50;4960324;28;20106;-77
2023/07/13 10:49:07;;;;;;;10.82;4.50;;;;;;;20.69;70.10;101585.03;4965278;28;20042;-78
2023/07/13 10:51:37;;;;;;;8.13;4.78;;;;;;;20.29;74.73;101587.31;4968967;28;20034;-73
2023/07/13 10:54:26;;;;;;;9.60;5.07;;;;;;;20.37;73.63;101586.50;4969480;28;20027;-77
2023/07/13 10:57:11;;;;;;;7.25;4.85;;;;;;;20.35;73.15;101589.34;4970064;28;20403;-77
2023/07/13 10:59:41;;;;;;;7.55;4.45;;;;;;;20.44;75.31;101590.28;4949585;29;20026;-74
2023/07/13 11:02:11;;;;;;;8.07;4.78;;;;;;;20.61;75.28;101584.00;4954738;28;20031;-77
2023/07/13 11:04:47;;;;;;;8.25;4.82;;;;;;;20.95;76.72;101575.09;4965258;28;20102;-78
2023/07/13 11:07:23;;;;;;;8.20;4.55;;;;;;;21.63;72.51;101579.41;4956345;28;20027;-78
2023/07/13 11:09:54;;;;;;;9.05;4.70;;;;;;;22.22;68.97;101571.97;4957258;28;20447;-78
2023/07/13 11:12:20;;;;;;;10.88;4.57;;;;;;;22.44;65.97;101579.28;4972431;28;20023;-75
2023/07/13 11:14:54;;;;;;;8.25;4.82;;;;;;;22.64;66.19;101574.34;4974447;28;20098;-78
2023/07/13 11:17:32;;;;;;;11.27;4.53;;;;;;;22.84;62.77;101570.25;4957480;28;20149;-79
2023/07/13 11:20:15;;;;;;;10.73;4.85;;;;;;;22.97;59.33;101573.19;4960159;28;20456;-79
2023/07/13 11:22:53;;;;;;;10.52;4.88;;;;;;;23.16;61.00;101574.56;4973093;28;20050;-79
2023/07/13 11:25:26;;;;;;;8.63;4.70;;;;;;;23.58;59.97;101571.44;4960808;28;20030;-79